Dale, New York
Current Conditions -  °F | °C
As of 10:54 AM on Friday 24 Oct 2014 (Local Time) from KDSV Reporting Station
Clear Clear  
Wind Chill: 52°   Ceiling: Unl
Heat Index: 52°   Visibility: 10mi
Dew Point: 40°   Wind: 10mph
Humidity: 63%   Direction: 360°N
Pressure: 30.01"   Gusts: NA
Location:  42.82°N, 78.17°W
Report Text: KDSV 241454Z AUTO 36009KT 10SM CLR 11/04 A3001 RMK AO2 SLP171 T01110044 58007
Loading
Personal Weather Stations






























Interactive Weather Map
Tropical Storm Tracking
New forecast layout! Learn more

10-Day Weather Forecast

Advertisements
Track Severe Weather on mobile